sensor_id;sensor_type;location;lat;lon;timestamp;P1;durP1;ratioP1;P2;durP2;ratioP2
12812;SDS011;6471;50.932;6.934;2023-06-19T00:02:10;3.83;;;3.40;;
12812;SDS011;6471;50.932;6.934;2023-06-19T00:04:36;3.20;;;2.90;;
12812;SDS011;6471;50.932;6.934;2023-06-19T00:07:03;3.83;;;3.47;;
12812;SDS011;6471;50.932;6.934;2023-06-19T00:09:29;3.83;;;3.50;;
12812;SDS011;6471;50.932;6.934;2023-06-19T00:11:55;3.77;;;3.37;;
12812;SDS011;6471;50.932;6.934;2023-06-19T00:14:23;3.20;;;2.90;;
12812;SDS011;6471;50.932;6.934;2023-06-19T00:16:49;2.90;;;2.70;;
12812;SDS011;6471;50.932;6.934;2023-06-19T00:19:16;3.47;;;3.17;;
12812;SDS011;6471;50.932;6.934;2023-06-19T00:21:42;3.13;;;2.83;;
12812;SDS011;6471;50.932;6.934;2023-06-19T00:24:09;4.23;;;3.67;;
12812;SDS011;6471;50.932;6.934;2023-06-19T00:26:35;3.60;;;3.30;;
12812;SDS011;6471;50.932;6.934;2023-06-19T00:29:02;3.30;;;3.00;;
12812;SDS011;6471;50.932;6.934;2023-06-19T00:31:28;3.67;;;3.20;;
12812;SDS011;6471;50.932;6.934;2023-06-19T00:33:54;3.23;;;2.93;;
12812;SDS011;6471;50.932;6.934;2023-06-19T00:36:20;3.03;;;2.83;;
12812;SDS011;6471;50.932;6.934;2023-06-19T00:38:48;3.13;;;2.83;;
12812;SDS011;6471;50.932;6.934;2023-06-19T00:41:15;2.97;;;2.67;;
12812;SDS011;6471;50.932;6.934;2023-06-19T00:43:44;3.17;;;2.87;;
12812;SDS011;6471;50.932;6.934;2023-06-19T00:46:10;3.00;;;2.70;;
12812;SDS011;6471;50.932;6.934;2023-06-19T00:48:37;2.93;;;2.73;;
12812;SDS011;6471;50.932;6.934;2023-06-19T00:51:03;2.73;;;2.53;;
12812;SDS011;6471;50.932;6.934;2023-06-19T00:53:29;3.50;;;3.10;;
12812;SDS011;6471;50.932;6.934;2023-06-19T00:55:56;3.30;;;3.00;;
12812;SDS011;6471;50.932;6.934;2023-06-19T00:58:23;3.70;;;3.30;;
12812;SDS011;6471;50.932;6.934;2023-06-19T01:00:50;3.70;;;3.40;;
12812;SDS011;6471;50.932;6.934;2023-06-19T01:03:16;3.57;;;3.27;;
12812;SDS011;6471;50.932;6.934;2023-06-19T01:05:43;3.77;;;3.40;;
12812;SDS011;6471;50.932;6.934;2023-06-19T01:08:14;4.27;;;3.87;;
12812;SDS011;6471;50.932;6.934;2023-06-19T01:10:44;4.10;;;3.70;;
12812;SDS011;6471;50.932;6.934;2023-06-19T01:13:19;4.10;;;3.70;;
12812;SDS011;6471;50.932;6.934;2023-06-19T01:15:47;4.20;;;3.80;;
12812;SDS011;6471;50.932;6.934;2023-06-19T01:18:14;3.80;;;3.50;;
12812;SDS011;6471;50.932;6.934;2023-06-19T01:20:40;3.63;;;3.33;;
12812;SDS011;6471;50.932;6.934;2023-06-19T01:23:10;4.13;;;3.73;;
12812;SDS011;6471;50.932;6.934;2023-06-19T01:25:37;4.10;;;3.70;;
12812;SDS011;6471;50.932;6.934;2023-06-19T01:28:04;4.10;;;3.80;;
12812;SDS011;6471;50.932;6.934;2023-06-19T01:30:34;4.37;;;3.97;;
12812;SDS011;6471;50.932;6.934;2023-06-19T01:35:46;5.03;;;4.53;;
12812;SDS011;6471;50.932;6.934;2023-06-19T01:38:12;4.20;;;3.80;;
12812;SDS011;6471;50.932;6.934;2023-06-19T01:40:39;3.80;;;3.50;;
12812;SDS011;6471;50.932;6.934;2023-06-19T01:43:06;3.97;;;3.67;;
12812;SDS011;6471;50.932;6.934;2023-06-19T01:45:32;4.20;;;3.80;;
12812;SDS011;6471;50.932;6.934;2023-06-19T01:47:59;4.17;;;3.80;;
12812;SDS011;6471;50.932;6.934;2023-06-19T01:50:25;4.40;;;4.00;;
12812;SDS011;6471;50.932;6.934;2023-06-19T01:52:51;4.07;;;3.67;;
12812;SDS011;6471;50.932;6.934;2023-06-19T01:55:17;4.20;;;3.80;;
12812;SDS011;6471;50.932;6.934;2023-06-19T01:57:43;4.20;;;3.80;;
12812;SDS011;6471;50.932;6.934;2023-06-19T02:00:11;4.33;;;3.93;;
12812;SDS011;6471;50.932;6.934;2023-06-19T02:02:37;3.83;;;3.53;;
12812;SDS011;6471;50.932;6.934;2023-06-19T02:05:03;4.17;;;3.83;;
12812;SDS011;6471;50.932;6.934;2023-06-19T02:07:29;3.90;;;3.60;;
12812;SDS011;6471;50.932;6.934;2023-06-19T02:09:56;3.60;;;3.30;;
12812;SDS011;6471;50.932;6.934;2023-06-19T02:12:22;3.73;;;3.43;;
12812;SDS011;6471;50.932;6.934;2023-06-19T02:14:48;3.87;;;3.50;;
12812;SDS011;6471;50.932;6.934;2023-06-19T02:17:14;3.50;;;3.20;;
12812;SDS011;6471;50.932;6.934;2023-06-19T02:19:40;3.60;;;3.30;;
12812;SDS011;6471;50.932;6.934;2023-06-19T02:22:07;3.47;;;3.17;;
12812;SDS011;6471;50.932;6.934;2023-06-19T02:24:33;3.60;;;3.30;;
12812;SDS011;6471;50.932;6.934;2023-06-19T02:26:59;3.40;;;3.10;;
12812;SDS011;6471;50.932;6.934;2023-06-19T02:29:27;3.10;;;2.80;;
12812;SDS011;6471;50.932;6.934;2023-06-19T02:31:54;3.70;;;3.40;;
12812;SDS011;6471;50.932;6.934;2023-06-19T02:34:20;3.87;;;3.47;;
12812;SDS011;6471;50.932;6.934;2023-06-19T02:36:49;3.30;;;3.00;;
12812;SDS011;6471;50.932;6.934;2023-06-19T02:39:15;3.73;;;3.40;;
12812;SDS011;6471;50.932;6.934;2023-06-19T02:41:41;3.13;;;2.83;;
12812;SDS011;6471;50.932;6.934;2023-06-19T02:44:12;3.23;;;2.93;;
12812;SDS011;6471;50.932;6.934;2023-06-19T02:46:38;3.20;;;2.90;;
12812;SDS011;6471;50.932;6.934;2023-06-19T02:49:04;3.10;;;2.80;;
12812;SDS011;6471;50.932;6.934;2023-06-19T02:51:30;3.50;;;3.20;;
12812;SDS011;6471;50.932;6.934;2023-06-19T02:53:57;3.20;;;2.83;;
12812;SDS011;6471;50.932;6.934;2023-06-19T02:56:23;3.37;;;3.07;;
12812;SDS011;6471;50.932;6.934;2023-06-19T02:58:50;3.10;;;2.80;;
12812;SDS011;6471;50.932;6.934;2023-06-19T03:01:16;3.07;;;2.80;;
12812;SDS011;6471;50.932;6.934;2023-06-19T03:03:42;3.50;;;3.20;;
12812;SDS011;6471;50.932;6.934;2023-06-19T03:06:08;3.40;;;3.10;;
12812;SDS011;6471;50.932;6.934;2023-06-19T03:08:34;3.53;;;3.23;;
12812;SDS011;6471;50.932;6.934;2023-06-19T03:11:00;3.70;;;3.40;;
12812;SDS011;6471;50.932;6.934;2023-06-19T03:13:29;3.30;;;3.00;;
12812;SDS011;6471;50.932;6.934;2023-06-19T03:15:55;3.50;;;3.20;;
12812;SDS011;6471;50.932;6.934;2023-06-19T03:18:21;3.13;;;2.83;;
12812;SDS011;6471;50.932;6.934;2023-06-19T03:20:47;3.23;;;2.93;;
12812;SDS011;6471;50.932;6.934;2023-06-19T03:23:14;3.37;;;3.07;;
12812;SDS011;6471;50.932;6.934;2023-06-19T03:25:40;3.80;;;3.30;;
12812;SDS011;6471;50.932;6.934;2023-06-19T03:28:07;3.30;;;3.00;;
12812;SDS011;6471;50.932;6.934;2023-06-19T03:30:33;3.33;;;3.03;;
12812;SDS011;6471;50.932;6.934;2023-06-19T03:32:59;3.33;;;3.03;;
12812;SDS011;6471;50.932;6.934;2023-06-19T03:35:25;3.40;;;3.10;;
12812;SDS011;6471;50.932;6.934;2023-06-19T03:37:51;3.37;;;3.07;;
12812;SDS011;6471;50.932;6.934;2023-06-19T03:40:18;3.97;;;3.10;;
12812;SDS011;6471;50.932;6.934;2023-06-19T03:42:44;3.10;;;2.80;;
12812;SDS011;6471;50.932;6.934;2023-06-19T03:45:10;3.20;;;2.90;;
12812;SDS011;6471;50.932;6.934;2023-06-19T03:47:36;3.50;;;3.20;;
12812;SDS011;6471;50.932;6.934;2023-06-19T03:50:02;4.10;;;3.70;;
12812;SDS011;6471;50.932;6.934;2023-06-19T03:52:28;4.17;;;3.77;;
12812;SDS011;6471;50.932;6.934;2023-06-19T03:54:54;4.67;;;4.00;;
12812;SDS011;6471;50.932;6.934;2023-06-19T03:57:20;3.93;;;3.43;;
12812;SDS011;6471;50.932;6.934;2023-06-19T03:59:46;3.80;;;3.50;;
12812;SDS011;6471;50.932;6.934;2023-06-19T04:02:12;3.90;;;3.50;;
12812;SDS011;6471;50.932;6.934;2023-06-19T04:04:38;4.13;;;3.73;;
12812;SDS011;6471;50.932;6.934;2023-06-19T04:07:04;5.43;;;4.60;;
12812;SDS011;6471;50.932;6.934;2023-06-19T04:09:30;4.97;;;4.47;;
12812;SDS011;6471;50.932;6.934;2023-06-19T04:11:57;5.07;;;4.20;;
12812;SDS011;6471;50.932;6.934;2023-06-19T04:14:23;4.60;;;4.20;;
12812;SDS011;6471;50.932;6.934;2023-06-19T04:16:49;5.90;;;4.27;;
12812;SDS011;6471;50.932;6.934;2023-06-19T04:19:15;4.43;;;4.03;;
12812;SDS011;6471;50.932;6.934;2023-06-19T04:21:41;4.30;;;3.90;;
12812;SDS011;6471;50.932;6.934;2023-06-19T04:24:07;4.97;;;4.43;;
12812;SDS011;6471;50.932;6.934;2023-06-19T04:26:34;4.47;;;4.07;;
12812;SDS011;6471;50.932;6.934;2023-06-19T04:29:01;6.23;;;4.27;;
12812;SDS011;6471;50.932;6.934;2023-06-19T04:31:27;4.47;;;4.07;;
12812;SDS011;6471;50.932;6.934;2023-06-19T04:33:54;5.47;;;3.80;;
12812;SDS011;6471;50.932;6.934;2023-06-19T04:36:21;3.23;;;2.93;;
12812;SDS011;6471;50.932;6.934;2023-06-19T04:38:47;3.40;;;3.10;;
12812;SDS011;6471;50.932;6.934;2023-06-19T04:41:14;3.83;;;3.30;;
12812;SDS011;6471;50.932;6.934;2023-06-19T04:43:41;3.60;;;3.23;;
12812;SDS011;6471;50.932;6.934;2023-06-19T04:46:07;3.83;;;3.10;;
12812;SDS011;6471;50.932;6.934;2023-06-19T04:48:51;3.23;;;2.60;;
12812;SDS011;6471;50.932;6.934;2023-06-19T04:51:20;3.40;;;3.10;;
12812;SDS011;6471;50.932;6.934;2023-06-19T04:53:51;2.87;;;2.50;;
12812;SDS011;6471;50.932;6.934;2023-06-19T04:56:17;4.87;;;3.07;;
12812;SDS011;6471;50.932;6.934;2023-06-19T04:58:46;5.30;;;3.00;;
12812;SDS011;6471;50.932;6.934;2023-06-19T05:01:16;2.87;;;2.57;;
12812;SDS011;6471;50.932;6.934;2023-06-19T05:03:51;4.17;;;2.87;;
12812;SDS011;6471;50.932;6.934;2023-06-19T05:06:22;3.10;;;2.80;;
12812;SDS011;6471;50.932;6.934;2023-06-19T05:08:48;5.13;;;2.73;;
12812;SDS011;6471;50.932;6.934;2023-06-19T05:11:15;3.23;;;2.50;;
12812;SDS011;6471;50.932;6.934;2023-06-19T05:13:41;2.87;;;2.63;;
12812;SDS011;6471;50.932;6.934;2023-06-19T05:16:07;2.93;;;2.60;;
12812;SDS011;6471;50.932;6.934;2023-06-19T05:18:33;2.97;;;2.67;;
12812;SDS011;6471;50.932;6.934;2023-06-19T05:20:59;2.40;;;2.20;;
12812;SDS011;6471;50.932;6.934;2023-06-19T05:23:26;2.73;;;2.43;;
12812;SDS011;6471;50.932;6.934;2023-06-19T05:25:56;2.40;;;2.20;;
12812;SDS011;6471;50.932;6.934;2023-06-19T05:28:24;2.87;;;2.60;;
12812;SDS011;6471;50.932;6.934;2023-06-19T05:30:50;2.77;;;2.47;;
12812;SDS011;6471;50.932;6.934;2023-06-19T05:33:19;2.50;;;2.30;;
12812;SDS011;6471;50.932;6.934;2023-06-19T05:38:51;2.73;;;2.30;;
12812;SDS011;6471;50.932;6.934;2023-06-19T06:37:37;2.50;;;2.00;;
12812;SDS011;6471;50.932;6.934;2023-06-19T06:40:03;2.43;;;2.00;;
12812;SDS011;6471;50.932;6.934;2023-06-19T06:42:34;2.30;;;2.10;;
12812;SDS011;6471;50.932;6.934;2023-06-19T06:45:00;2.83;;;1.90;;
12812;SDS011;6471;50.932;6.934;2023-06-19T06:47:31;1.93;;;1.60;;
12812;SDS011;6471;50.932;6.934;2023-06-19T06:49:58;1.90;;;1.70;;
12812;SDS011;6471;50.932;6.934;2023-06-19T06:52:24;1.70;;;1.60;;
12812;SDS011;6471;50.932;6.934;2023-06-19T06:54:52;2.00;;;1.77;;
12812;SDS011;6471;50.932;6.934;2023-06-19T06:57:21;3.40;;;1.93;;
12812;SDS011;6471;50.932;6.934;2023-06-19T06:59:47;2.07;;;1.87;;
12812;SDS011;6471;50.932;6.934;2023-06-19T07:02:13;1.80;;;1.70;;
12812;SDS011;6471;50.932;6.934;2023-06-19T07:04:39;1.83;;;1.60;;
12812;SDS011;6471;50.932;6.934;2023-06-19T07:07:05;1.60;;;1.50;;
12812;SDS011;6471;50.932;6.934;2023-06-19T07:09:33;2.80;;;1.50;;
12812;SDS011;6471;50.932;6.934;2023-06-19T07:12:06;1.90;;;1.60;;
12812;SDS011;6471;50.932;6.934;2023-06-19T07:15:07;1.70;;;1.40;;
12812;SDS011;6471;50.932;6.934;2023-06-19T07:17:34;1.70;;;1.50;;
12812;SDS011;6471;50.932;6.934;2023-06-19T07:20:00;2.00;;;1.38;;
12812;SDS011;6471;50.932;6.934;2023-06-19T07:22:27;1.50;;;1.40;;
12812;SDS011;6471;50.932;6.934;2023-06-19T07:24:53;1.45;;;1.30;;
12812;SDS011;6471;50.932;6.934;2023-06-19T07:27:19;3.05;;;1.60;;
12812;SDS011;6471;50.932;6.934;2023-06-19T07:29:45;1.30;;;1.20;;
12812;SDS011;6471;50.932;6.934;2023-06-19T07:32:11;2.13;;;1.38;;
12812;SDS011;6471;50.932;6.934;2023-06-19T07:34:37;1.23;;;1.13;;
12812;SDS011;6471;50.932;6.934;2023-06-19T07:37:03;1.52;;;1.25;;
12812;SDS011;6471;50.932;6.934;2023-06-19T07:39:29;1.55;;;1.40;;
12812;SDS011;6471;50.932;6.934;2023-06-19T07:41:56;1.30;;;1.20;;
12812;SDS011;6471;50.932;6.934;2023-06-19T07:44:22;1.77;;;1.20;;
12812;SDS011;6471;50.932;6.934;2023-06-19T07:46:48;1.63;;;1.35;;
12812;SDS011;6471;50.932;6.934;2023-06-19T07:49:14;1.40;;;1.30;;
12812;SDS011;6471;50.932;6.934;2023-06-19T07:51:40;1.40;;;1.30;;
12812;SDS011;6471;50.932;6.934;2023-06-19T07:54:06;1.30;;;1.20;;
12812;SDS011;6471;50.932;6.934;2023-06-19T07:56:32;2.53;;;1.65;;
12812;SDS011;6471;50.932;6.934;2023-06-19T07:58:58;1.70;;;1.60;;
12812;SDS011;6471;50.932;6.934;2023-06-19T08:01:24;2.03;;;1.50;;
12812;SDS011;6471;50.932;6.934;2023-06-19T08:03:51;4.47;;;1.80;;
12812;SDS011;6471;50.932;6.934;2023-06-19T08:06:17;3.08;;;1.70;;
12812;SDS011;6471;50.932;6.934;2023-06-19T08:08:43;6.03;;;2.05;;
12812;SDS011;6471;50.932;6.934;2023-06-19T08:11:09;5.07;;;1.90;;
12812;SDS011;6471;50.932;6.934;2023-06-19T08:13:35;3.92;;;1.67;;
12812;SDS011;6471;50.932;6.934;2023-06-19T08:16:01;4.65;;;1.90;;
12812;SDS011;6471;50.932;6.934;2023-06-19T08:18:27;3.13;;;1.67;;
12812;SDS011;6471;50.932;6.934;2023-06-19T08:31:17;1.55;;;1.45;;
12812;SDS011;6471;50.932;6.934;2023-06-19T08:33:43;3.38;;;1.60;;
12812;SDS011;6471;50.932;6.934;2023-06-19T08:36:10;2.20;;;1.55;;
12812;SDS011;6471;50.932;6.934;2023-06-19T08:38:36;2.05;;;1.40;;
12812;SDS011;6471;50.932;6.934;2023-06-19T08:41:03;1.88;;;1.38;;
12812;SDS011;6471;50.932;6.934;2023-06-19T08:43:29;7.32;;;2.72;;
12812;SDS011;6471;50.932;6.934;2023-06-19T08:46:06;7.72;;;2.67;;
12812;SDS011;6471;50.932;6.934;2023-06-19T08:48:36;1.70;;;1.40;;
12812;SDS011;6471;50.932;6.934;2023-06-19T08:51:03;2.03;;;1.50;;
12812;SDS011;6471;50.932;6.934;2023-06-19T08:53:32;2.30;;;1.60;;
12812;SDS011;6471;50.932;6.934;2023-06-19T08:55:59;3.28;;;2.00;;
12812;SDS011;6471;50.932;6.934;2023-06-19T08:58:25;1.60;;;1.50;;
12812;SDS011;6471;50.932;6.934;2023-06-19T09:00:51;1.58;;;1.48;;
12812;SDS011;6471;50.932;6.934;2023-06-19T09:03:21;2.05;;;1.83;;
12812;SDS011;6471;50.932;6.934;2023-06-19T09:05:47;2.10;;;1.63;;
12812;SDS011;6471;50.932;6.934;2023-06-19T09:08:19;1.80;;;1.60;;
12812;SDS011;6471;50.932;6.934;2023-06-19T09:10:57;2.97;;;1.80;;
12812;SDS011;6471;50.932;6.934;2023-06-19T09:13:23;3.03;;;1.83;;
12812;SDS011;6471;50.932;6.934;2023-06-19T09:15:56;4.03;;;2.20;;
12812;SDS011;6471;50.932;6.934;2023-06-19T09:18:24;2.17;;;1.88;;
12812;SDS011;6471;50.932;6.934;2023-06-19T09:20:51;1.90;;;1.75;;
12812;SDS011;6471;50.932;6.934;2023-06-19T09:23:18;3.17;;;2.38;;
12812;SDS011;6471;50.932;6.934;2023-06-19T09:26:03;3.65;;;2.78;;
12812;SDS011;6471;50.932;6.934;2023-06-19T09:28:29;5.32;;;2.83;;
12812;SDS011;6471;50.932;6.934;2023-06-19T09:30:57;4.63;;;2.67;;
12812;SDS011;6471;50.932;6.934;2023-06-19T09:33:27;2.40;;;2.20;;
12812;SDS011;6471;50.932;6.934;2023-06-19T09:35:57;2.53;;;2.33;;
12812;SDS011;6471;50.932;6.934;2023-06-19T09:38:25;3.53;;;2.80;;
12812;SDS011;6471;50.932;6.934;2023-06-19T09:40:51;3.53;;;3.22;;
12812;SDS011;6471;50.932;6.934;2023-06-19T09:43:34;4.32;;;2.80;;
12812;SDS011;6471;50.932;6.934;2023-06-19T09:46:02;5.35;;;3.03;;
12812;SDS011;6471;50.932;6.934;2023-06-19T09:48:30;4.45;;;2.63;;
12812;SDS011;6471;50.932;6.934;2023-06-19T09:51:19;2.60;;;2.40;;
12812;SDS011;6471;50.932;6.934;2023-06-19T09:53:44;3.53;;;2.83;;
12812;SDS011;6471;50.932;6.934;2023-06-19T09:56:11;4.57;;;2.95;;
12812;SDS011;6471;50.932;6.934;2023-06-19T09:58:38;5.57;;;3.17;;
12812;SDS011;6471;50.932;6.934;2023-06-19T10:01:05;2.72;;;2.47;;
12812;SDS011;6471;50.932;6.934;2023-06-19T10:03:41;4.20;;;2.75;;
12812;SDS011;6471;50.932;6.934;2023-06-19T10:06:12;5.10;;;3.30;;
12812;SDS011;6471;50.932;6.934;2023-06-19T10:08:40;3.88;;;2.83;;
12812;SDS011;6471;50.932;6.934;2023-06-19T10:11:07;3.90;;;3.38;;
12812;SDS011;6471;50.932;6.934;2023-06-19T10:13:35;3.67;;;2.90;;
12812;SDS011;6471;50.932;6.934;2023-06-19T10:16:06;3.58;;;3.00;;
12812;SDS011;6471;50.932;6.934;2023-06-19T10:18:43;2.70;;;2.50;;
12812;SDS011;6471;50.932;6.934;2023-06-19T10:21:20;3.08;;;2.78;;
12812;SDS011;6471;50.932;6.934;2023-06-19T10:23:55;5.32;;;3.25;;
12812;SDS011;6471;50.932;6.934;2023-06-19T10:26:34;3.63;;;2.90;;
12812;SDS011;6471;50.932;6.934;2023-06-19T10:29:00;3.75;;;3.05;;
12812;SDS011;6471;50.932;6.934;2023-06-19T10:31:26;3.45;;;3.08;;
12812;SDS011;6471;50.932;6.934;2023-06-19T10:33:53;4.63;;;3.20;;
12812;SDS011;6471;50.932;6.934;2023-06-19T10:36:21;3.30;;;3.00;;
12812;SDS011;6471;50.932;6.934;2023-06-19T10:38:47;4.05;;;3.08;;
12812;SDS011;6471;50.932;6.934;2023-06-19T10:43:52;4.50;;;3.70;;
12812;SDS011;6471;50.932;6.934;2023-06-19T10:46:18;4.22;;;3.65;;
12812;SDS011;6471;50.932;6.934;2023-06-19T10:48:44;4.15;;;3.45;;
12812;SDS011;6471;50.932;6.934;2023-06-19T10:51:11;4.70;;;3.10;;
12812;SDS011;6471;50.932;6.934;2023-06-19T10:53:37;3.35;;;3.03;;
12812;SDS011;6471;50.932;6.934;2023-06-19T10:56:06;3.60;;;3.20;;
12812;SDS011;6471;50.932;6.934;2023-06-19T10:58:32;2.92;;;2.60;;
12812;SDS011;6471;50.932;6.934;2023-06-19T11:00:58;3.50;;;2.60;;
12812;SDS011;6471;50.932;6.934;2023-06-19T11:03:24;3.10;;;2.60;;
12812;SDS011;6471;50.932;6.934;2023-06-19T11:05:50;3.35;;;2.80;;
12812;SDS011;6471;50.932;6.934;2023-06-19T11:08:20;4.95;;;3.20;;
12812;SDS011;6471;50.932;6.934;2023-06-19T11:10:47;4.00;;;3.13;;
12812;SDS011;6471;50.932;6.934;2023-06-19T11:13:17;3.20;;;2.90;;
12812;SDS011;6471;50.932;6.934;2023-06-19T11:15:43;4.97;;;2.80;;
12812;SDS011;6471;50.932;6.934;2023-06-19T11:18:10;3.38;;;3.05;;
12812;SDS011;6471;50.932;6.934;2023-06-19T11:20:43;4.07;;;3.28;;
12812;SDS011;6471;50.932;6.934;2023-06-19T11:23:09;3.90;;;2.83;;
12812;SDS011;6471;50.932;6.934;2023-06-19T11:25:36;3.10;;;2.70;;
12812;SDS011;6471;50.932;6.934;2023-06-19T11:28:13;2.70;;;2.45;;
12812;SDS011;6471;50.932;6.934;2023-06-19T11:30:39;4.90;;;3.30;;
12812;SDS011;6471;50.932;6.934;2023-06-19T11:33:41;4.82;;;3.28;;
12812;SDS011;6471;50.932;6.934;2023-06-19T11:36:01;4.25;;;3.30;;
12812;SDS011;6471;50.932;6.934;2023-06-19T11:38:28;6.22;;;3.72;;
12812;SDS011;6471;50.932;6.934;2023-06-19T11:40:55;4.47;;;3.53;;
12812;SDS011;6471;50.932;6.934;2023-06-19T11:43:24;4.35;;;3.47;;
12812;SDS011;6471;50.932;6.934;2023-06-19T11:45:51;4.38;;;3.47;;
12812;SDS011;6471;50.932;6.934;2023-06-19T11:48:24;3.88;;;3.47;;
12812;SDS011;6471;50.932;6.934;2023-06-19T11:50:53;4.00;;;2.97;;
12812;SDS011;6471;50.932;6.934;2023-06-19T11:53:23;3.00;;;2.65;;
12812;SDS011;6471;50.932;6.934;2023-06-19T11:55:50;3.58;;;2.80;;
12812;SDS011;6471;50.932;6.934;2023-06-19T11:58:16;5.50;;;3.28;;
12812;SDS011;6471;50.932;6.934;2023-06-19T12:00:44;4.43;;;3.65;;
12812;SDS011;6471;50.932;6.934;2023-06-19T12:03:10;5.53;;;3.40;;
12812;SDS011;6471;50.932;6.934;2023-06-19T12:05:37;3.80;;;3.38;;
12812;SDS011;6471;50.932;6.934;2023-06-19T12:08:03;4.43;;;3.95;;
12812;SDS011;6471;50.932;6.934;2023-06-19T12:10:31;4.07;;;3.40;;
12812;SDS011;6471;50.932;6.934;2023-06-19T12:12:57;5.22;;;3.70;;
12812;SDS011;6471;50.932;6.934;2023-06-19T12:15:24;5.18;;;3.55;;
12812;SDS011;6471;50.932;6.934;2023-06-19T12:17:50;5.03;;;3.33;;
12812;SDS011;6471;50.932;6.934;2023-06-19T12:20:17;3.55;;;3.05;;
12812;SDS011;6471;50.932;6.934;2023-06-19T12:22:43;2.63;;;2.42;;
12812;SDS011;6471;50.932;6.934;2023-06-19T12:25:09;3.25;;;2.80;;
12812;SDS011;6471;50.932;6.934;2023-06-19T12:27:35;2.88;;;2.58;;
12812;SDS011;6471;50.932;6.934;2023-06-19T12:30:02;4.15;;;2.83;;
12812;SDS011;6471;50.932;6.934;2023-06-19T12:32:28;4.47;;;3.00;;
12812;SDS011;6471;50.932;6.934;2023-06-19T12:34:54;3.20;;;2.90;;
12812;SDS011;6471;50.932;6.934;2023-06-19T12:37:20;3.78;;;2.90;;
12812;SDS011;6471;50.932;6.934;2023-06-19T12:39:47;3.60;;;3.10;;
12812;SDS011;6471;50.932;6.934;2023-06-19T12:42:13;3.45;;;2.72;;
12812;SDS011;6471;50.932;6.934;2023-06-19T12:44:39;4.93;;;2.95;;
12812;SDS011;6471;50.932;6.934;2023-06-19T12:47:06;5.13;;;2.90;;
12812;SDS011;6471;50.932;6.934;2023-06-19T12:49:32;3.90;;;2.95;;
12812;SDS011;6471;50.932;6.934;2023-06-19T12:51:58;4.85;;;2.90;;
12812;SDS011;6471;50.932;6.934;2023-06-19T12:54:25;4.72;;;2.72;;
12812;SDS011;6471;50.932;6.934;2023-06-19T12:56:52;3.03;;;2.22;;
12812;SDS011;6471;50.932;6.934;2023-06-19T12:59:18;3.33;;;2.67;;
12812;SDS011;6471;50.932;6.934;2023-06-19T13:01:44;3.22;;;2.55;;
12812;SDS011;6471;50.932;6.934;2023-06-19T13:04:11;3.92;;;2.50;;
12812;SDS011;6471;50.932;6.934;2023-06-19T13:06:37;2.83;;;2.50;;
12812;SDS011;6471;50.932;6.934;2023-06-19T13:09:04;4.32;;;3.20;;
12812;SDS011;6471;50.932;6.934;2023-06-19T13:11:30;4.15;;;2.70;;
12812;SDS011;6471;50.932;6.934;2023-06-19T13:13:59;3.25;;;2.85;;
12812;SDS011;6471;50.932;6.934;2023-06-19T13:16:25;3.22;;;2.90;;
12812;SDS011;6471;50.932;6.934;2023-06-19T13:18:51;4.03;;;2.60;;
12812;SDS011;6471;50.932;6.934;2023-06-19T13:21:17;3.75;;;3.10;;
12812;SDS011;6471;50.932;6.934;2023-06-19T13:23:43;3.30;;;3.00;;
12812;SDS011;6471;50.932;6.934;2023-06-19T13:26:10;3.03;;;2.65;;
12812;SDS011;6471;50.932;6.934;2023-06-19T13:28:36;3.70;;;2.72;;
12812;SDS011;6471;50.932;6.934;2023-06-19T13:31:02;3.55;;;3.00;;
12812;SDS011;6471;50.932;6.934;2023-06-19T13:33:29;3.03;;;2.72;;
12812;SDS011;6471;50.932;6.934;2023-06-19T13:35:55;3.17;;;2.70;;
12812;SDS011;6471;50.932;6.934;2023-06-19T13:38:21;3.00;;;2.70;;
12812;SDS011;6471;50.932;6.934;2023-06-19T13:41:20;3.38;;;2.88;;
12812;SDS011;6471;50.932;6.934;2023-06-19T13:50:02;4.30;;;3.10;;
12812;SDS011;6471;50.932;6.934;2023-06-19T13:52:28;3.08;;;2.75;;
12812;SDS011;6471;50.932;6.934;2023-06-19T13:54:54;3.90;;;3.00;;
12812;SDS011;6471;50.932;6.934;2023-06-19T13:57:20;3.42;;;2.88;;
12812;SDS011;6471;50.932;6.934;2023-06-19T13:59:47;3.35;;;2.92;;
12812;SDS011;6471;50.932;6.934;2023-06-19T14:02:14;4.68;;;3.10;;
12812;SDS011;6471;50.932;6.934;2023-06-19T14:04:42;3.53;;;2.95;;
12812;SDS011;6471;50.932;6.934;2023-06-19T14:07:08;2.70;;;2.50;;
12812;SDS011;6471;50.932;6.934;2023-06-19T14:09:34;3.13;;;2.83;;
12812;SDS011;6471;50.932;6.934;2023-06-19T14:12:00;2.85;;;2.55;;
12812;SDS011;6471;50.932;6.934;2023-06-19T14:14:26;3.33;;;2.60;;
12812;SDS011;6471;50.932;6.934;2023-06-19T14:16:53;3.30;;;3.00;;
12812;SDS011;6471;50.932;6.934;2023-06-19T14:19:19;4.28;;;3.40;;
12812;SDS011;6471;50.932;6.934;2023-06-19T14:21:45;3.60;;;3.30;;
12812;SDS011;6471;50.932;6.934;2023-06-19T14:24:11;4.35;;;3.20;;
12812;SDS011;6471;50.932;6.934;2023-06-19T14:26:37;3.42;;;3.13;;
12812;SDS011;6471;50.932;6.934;2023-06-19T14:29:03;4.10;;;3.08;;
12812;SDS011;6471;50.932;6.934;2023-06-19T14:31:29;4.38;;;3.40;;
12812;SDS011;6471;50.932;6.934;2023-06-19T14:33:56;4.43;;;3.03;;
12812;SDS011;6471;50.932;6.934;2023-06-19T14:36:22;4.68;;;2.85;;
12812;SDS011;6471;50.932;6.934;2023-06-19T14:38:48;3.20;;;2.60;;
12812;SDS011;6471;50.932;6.934;2023-06-19T14:41:14;2.97;;;2.38;;
12812;SDS011;6471;50.932;6.934;2023-06-19T14:43:40;2.97;;;2.67;;
12812;SDS011;6471;50.932;6.934;2023-06-19T14:46:06;3.15;;;2.60;;
12812;SDS011;6471;50.932;6.934;2023-06-19T14:48:32;3.10;;;2.63;;
12812;SDS011;6471;50.932;6.934;2023-06-19T14:50:58;4.03;;;2.47;;
12812;SDS011;6471;50.932;6.934;2023-06-19T14:53:25;3.33;;;2.70;;
12812;SDS011;6471;50.932;6.934;2023-06-19T14:55:51;3.67;;;2.42;;
12812;SDS011;6471;50.932;6.934;2023-06-19T15:00:53;3.75;;;3.08;;
12812;SDS011;6471;50.932;6.934;2023-06-19T15:03:19;3.13;;;2.65;;
12812;SDS011;6471;50.932;6.934;2023-06-19T15:05:46;2.90;;;2.55;;
12812;SDS011;6471;50.932;6.934;2023-06-19T15:08:12;2.60;;;2.35;;
12812;SDS011;6471;50.932;6.934;2023-06-19T15:10:38;2.90;;;2.60;;
12812;SDS011;6471;50.932;6.934;2023-06-19T15:13:04;2.45;;;2.25;;
12812;SDS011;6471;50.932;6.934;2023-06-19T15:15:30;2.90;;;2.60;;
12812;SDS011;6471;50.932;6.934;2023-06-19T15:17:56;2.92;;;2.63;;
12812;SDS011;6471;50.932;6.934;2023-06-19T15:20:22;2.63;;;2.42;;
12812;SDS011;6471;50.932;6.934;2023-06-19T15:22:49;3.08;;;2.40;;
12812;SDS011;6471;50.932;6.934;2023-06-19T15:25:15;4.40;;;3.15;;
12812;SDS011;6471;50.932;6.934;2023-06-19T15:27:41;5.03;;;2.85;;
12812;SDS011;6471;50.932;6.934;2023-06-19T15:30:07;3.92;;;3.28;;
12812;SDS011;6471;50.932;6.934;2023-06-19T15:32:34;4.03;;;2.78;;
12812;SDS011;6471;50.932;6.934;2023-06-19T15:35:02;4.03;;;2.97;;
12812;SDS011;6471;50.932;6.934;2023-06-19T15:37:28;3.63;;;3.00;;
12812;SDS011;6471;50.932;6.934;2023-06-19T15:39:54;3.35;;;2.60;;
12812;SDS011;6471;50.932;6.934;2023-06-19T15:42:21;3.05;;;2.60;;
12812;SDS011;6471;50.932;6.934;2023-06-19T15:44:47;2.60;;;2.40;;
12812;SDS011;6471;50.932;6.934;2023-06-19T15:47:13;3.75;;;3.28;;
12812;SDS011;6471;50.932;6.934;2023-06-19T15:49:39;3.60;;;3.08;;
12812;SDS011;6471;50.932;6.934;2023-06-19T15:52:05;4.25;;;3.35;;
12812;SDS011;6471;50.932;6.934;2023-06-19T15:54:31;3.55;;;3.20;;
12812;SDS011;6471;50.932;6.934;2023-06-19T15:56:57;3.28;;;2.97;;
12812;SDS011;6471;50.932;6.934;2023-06-19T15:59:23;4.43;;;2.88;;
12812;SDS011;6471;50.932;6.934;2023-06-19T16:01:50;3.63;;;3.20;;
12812;SDS011;6471;50.932;6.934;2023-06-19T16:04:16;3.97;;;2.70;;
12812;SDS011;6471;50.932;6.934;2023-06-19T16:06:42;3.72;;;3.25;;
12812;SDS011;6471;50.932;6.934;2023-06-19T16:09:09;2.58;;;2.38;;
12812;SDS011;6471;50.932;6.934;2023-06-19T16:11:35;3.20;;;2.90;;
12812;SDS011;6471;50.932;6.934;2023-06-19T16:14:01;2.55;;;2.35;;
12812;SDS011;6471;50.932;6.934;2023-06-19T16:16:27;3.38;;;2.28;;
12812;SDS011;6471;50.932;6.934;2023-06-19T16:18:53;4.78;;;3.10;;
12812;SDS011;6471;50.932;6.934;2023-06-19T16:21:19;3.40;;;3.10;;
12812;SDS011;6471;50.932;6.934;2023-06-19T16:23:47;4.70;;;3.17;;
12812;SDS011;6471;50.932;6.934;2023-06-19T16:26:13;4.40;;;3.40;;